Time,TemperatureF,DewpointF,PressureIn,WindDirection,WindDirectionDegrees,WindSpeedMPH,WindSpeedGustMPH,Humidity,HourlyPrecipIn,Conditions,Clouds,dailyrainin,SoftwareType,DateUTC
2017-04-28 00:04:00,56.6,55.2,29.86,East,82,0.0,0.0,95,0.00,,,0.00,WeatherCatV2.41B14,2017-04-28 04:04:00,
2017-04-28 00:09:00,56.5,55.1,29.86,East,82,0.0,0.0,95,0.00,,,0.00,WeatherCatV2.41B14,2017-04-28 04:09:00,
2017-04-28 00:14:00,56.4,55.0,29.86,SSE,149,1.0,4.0,95,0.00,,,0.00,WeatherCatV2.41B14,2017-04-28 04:14:00,
2017-04-28 00:19:00,56.3,54.9,29.86,SSE,149,0.0,0.0,95,0.00,,,0.00,WeatherCatV2.41B14,2017-04-28 04:19:00,
2017-04-28 00:24:00,56.2,54.8,29.86,SSE,149,0.0,1.0,95,0.00,,,0.00,WeatherCatV2.41B14,2017-04-28 04:24:00,
2017-04-28 00:29:00,56.1,55.0,29.87,SSE,149,0.0,0.0,96,0.00,,,0.00,WeatherCatV2.41B14,2017-04-28 04:29:00,
2017-04-28 00:34:00,56.0,54.9,29.87,SSE,149,0.0,0.0,96,0.00,,,0.00,WeatherCatV2.41B14,2017-04-28 04:34:00,
2017-04-28 00:39:00,55.9,54.8,29.87,SSE,149,0.0,1.0,96,0.00,,,0.00,WeatherCatV2.41B14,2017-04-28 04:39:00,
2017-04-28 00:44:00,55.8,54.7,29.87,SSE,149,0.0,2.0,96,0.00,,,0.00,WeatherCatV2.41B14,2017-04-28 04:44:00,
2017-04-28 00:49:00,55.7,54.6,29.88,SSE,149,0.0,0.0,96,0.00,,,0.00,WeatherCatV2.41B14,2017-04-28 04:49:00,
2017-04-28 00:54:00,55.6,54.5,29.88,SSE,149,0.0,1.0,96,0.00,,,0.00,WeatherCatV2.41B14,2017-04-28 04:54:00,
2017-04-28 00:59:00,55.5,54.4,29.88,SSE,149,1.0,1.0,96,0.00,,,0.00,WeatherCatV2.41B14,2017-04-28 04:59:00,
2017-04-28 01:04:00,55.5,54.4,29.88,SSE,149,0.0,0.0,96,0.00,,,0.00,WeatherCatV2.41B14,2017-04-28 05:04:00,
2017-04-28 01:09:00,55.4,54.3,29.87,SSE,149,0.0,0.0,96,0.00,,,0.00,WeatherCatV2.41B14,2017-04-28 05:09:00,
2017-04-28 01:14:00,55.4,55.4,29.87,SSE,149,0.0,0.0,100,0.00,,,0.00,WeatherCatV2.41B14,2017-04-28 05:14:00,
2017-04-28 01:19:00,55.3,54.2,29.87,SSE,149,0.0,0.0,96,0.00,,,0.00,WeatherCatV2.41B14,2017-04-28 05:19:00,
2017-04-28 01:24:00,55.3,54.2,29.86,SSE,149,0.0,0.0,96,0.00,,,0.00,WeatherCatV2.41B14,2017-04-28 05:24:00,
2017-04-28 01:29:00,55.3,54.2,29.86,SSE,149,0.0,0.0,96,0.00,,,0.00,WeatherCatV2.41B14,2017-04-28 05:29:00,
2017-04-28 01:34:00,55.3,54.2,29.86,SSE,149,0.0,0.0,96,0.00,,,0.00,WeatherCatV2.41B14,2017-04-28 05:34:00,
2017-04-28 01:39:00,55.2,54.1,29.86,SSE,149,0.0,0.0,96,0.00,,,0.00,WeatherCatV2.41B14,2017-04-28 05:39:00,
2017-04-28 01:44:00,55.1,54.0,29.86,SSE,149,0.0,2.0,96,0.00,,,0.00,WeatherCatV2.41B14,2017-04-28 05:44:00,
2017-04-28 01:49:00,55.0,54.2,29.86,SSE,157,0.0,0.0,97,0.00,,,0.00,WeatherCatV2.41B14,2017-04-28 05:49:00,
2017-04-28 01:54:00,55.0,54.2,29.86,SSE,157,0.0,1.0,97,0.00,,,0.00,WeatherCatV2.41B14,2017-04-28 05:54:00,
2017-04-28 01:59:00,54.9,54.1,29.86,SSE,159,0.0,1.0,97,0.00,,,0.00,WeatherCatV2.41B14,2017-04-28 05:59:00,
2017-04-28 02:04:00,54.8,53.7,29.85,SSE,159,0.0,0.0,96,0.00,,,0.00,WeatherCatV2.41B14,2017-04-28 06:04:00,
2017-04-28 02:09:00,54.7,53.9,29.85,SSE,159,0.0,0.0,97,0.00,,,0.00,WeatherCatV2.41B14,2017-04-28 06:09:00,
2017-04-28 02:14:00,54.7,53.9,29.85,SSE,159,0.0,0.0,97,0.00,,,0.00,WeatherCatV2.41B14,2017-04-28 06:14:00,
2017-04-28 02:19:00,54.6,53.8,29.85,SSE,159,0.0,0.0,97,0.00,,,0.00,WeatherCatV2.41B14,2017-04-28 06:19:00,
2017-04-28 02:24:00,54.6,53.8,29.85,SSE,158,0.0,0.0,97,0.00,,,0.00,WeatherCatV2.41B14,2017-04-28 06:24:00,
2017-04-28 02:29:00,54.6,53.8,29.85,SSE,159,0.0,0.0,97,0.00,,,0.00,WeatherCatV2.41B14,2017-04-28 06:29:00,
2017-04-28 02:34:00,54.6,53.8,29.86,SSE,159,0.0,0.0,97,0.00,,,0.00,WeatherCatV2.41B14,2017-04-28 06:34:00,
2017-04-28 02:39:00,54.5,53.7,29.86,SSE,159,0.0,0.0,97,0.00,,,0.00,WeatherCatV2.41B14,2017-04-28 06:39:00,
2017-04-28 02:44:00,54.4,53.6,29.86,SSE,159,0.0,0.0,97,0.00,,,0.00,WeatherCatV2.41B14,2017-04-28 06:44:00,
2017-04-28 02:49:00,54.4,53.6,29.86,SSE,159,0.0,0.0,97,0.00,,,0.00,WeatherCatV2.41B14,2017-04-28 06:49:00,
2017-04-28 02:54:00,54.4,53.6,29.86,SSE,159,0.0,0.0,97,0.00,,,0.00,WeatherCatV2.41B14,2017-04-28 06:54:00,
2017-04-28 02:59:00,54.3,53.5,29.86,SSE,159,0.0,0.0,97,0.00,,,0.00,WeatherCatV2.41B14,2017-04-28 06:59:00,
2017-04-28 03:00:00,54.3,53.5,29.86,SSE,159,0.0,0.0,97,0.00,,,0.00,WeatherCatV2.41B14,2017-04-28 07:00:00,
2017-04-28 03:05:00,54.3,53.5,29.86,SSE,159,0.0,0.0,97,0.00,,,0.00,WeatherCatV2.41B14,2017-04-28 07:05:00,
2017-04-28 03:10:00,54.3,53.5,29.86,SSE,159,0.0,0.0,97,0.00,,,0.00,WeatherCatV2.41B14,2017-04-28 07:10:00,
2017-04-28 03:15:00,54.3,53.5,29.86,SSE,159,0.0,0.0,97,0.00,,,0.00,WeatherCatV2.41B14,2017-04-28 07:15:00,
2017-04-28 03:20:00,54.3,53.5,29.86,SSE,159,0.0,0.0,97,0.00,,,0.00,WeatherCatV2.41B14,2017-04-28 07:20:00,
2017-04-28 03:25:00,54.3,53.5,29.85,SSE,159,0.0,0.0,97,0.00,,,0.00,WeatherCatV2.41B14,2017-04-28 07:25:00,
2017-04-28 03:30:00,54.2,53.4,29.85,SSE,159,0.0,0.0,97,0.00,,,0.00,WeatherCatV2.41B14,2017-04-28 07:30:00,
2017-04-28 03:35:00,54.2,53.4,29.86,SSE,158,1.0,2.0,97,0.00,,,0.00,WeatherCatV2.41B14,2017-04-28 07:35:00,
2017-04-28 03:40:00,54.0,53.2,29.86,SSE,159,0.0,0.0,97,0.00,,,0.00,WeatherCatV2.41B14,2017-04-28 07:40:00,
2017-04-28 03:45:00,54.0,53.2,29.86,SSE,159,0.0,0.0,97,0.00,,,0.00,WeatherCatV2.41B14,2017-04-28 07:45:00,
2017-04-28 03:50:00,-999.9,-99.9,29.85,North,-9999,-999.9,0.0,-999,0.00,,,0.00,WeatherCatV2.41B14,2017-04-28 07:50:00,
2017-04-28 03:55:00,-999.9,-99.9,29.84,North,-9999,-999.9,0.0,-999,0.00,,,0.00,WeatherCatV2.41B14,2017-04-28 07:55:00,
2017-04-28 04:00:00,-999.9,-99.9,29.85,North,-9999,-999.9,0.0,-999,0.00,,,0.00,WeatherCatV2.41B14,2017-04-28 08:00:00,
2017-04-28 04:05:00,-999.9,-99.9,29.85,North,-9999,-999.9,0.0,-999,0.00,,,0.00,WeatherCatV2.41B14,2017-04-28 08:05:00,
2017-04-28 04:10:00,-999.9,-99.9,29.85,North,-9999,-999.9,0.0,-999,0.00,,,0.00,WeatherCatV2.41B14,2017-04-28 08:10:00,
2017-04-28 04:15:00,-999.9,-99.9,29.85,North,-9999,-999.9,0.0,-999,0.00,,,0.00,WeatherCatV2.41B14,2017-04-28 08:15:00,
2017-04-28 04:20:00,-999.9,-99.9,29.86,North,-9999,-999.9,0.0,-999,0.00,,,0.00,WeatherCatV2.41B14,2017-04-28 08:20:00,
2017-04-28 04:25:00,-999.9,-99.9,29.86,North,-9999,-999.9,0.0,-999,0.00,,,0.00,WeatherCatV2.41B14,2017-04-28 08:25:00,
2017-04-28 04:30:00,-999.9,-99.9,29.86,North,-9999,-999.9,0.0,-999,0.00,,,0.00,WeatherCatV2.41B14,2017-04-28 08:30:00,
2017-04-28 04:35:00,-999.9,-99.9,29.85,North,-9999,-999.9,0.0,-999,0.00,,,0.00,WeatherCatV2.41B14,2017-04-28 08:35:00,
2017-04-28 04:40:00,-999.9,-99.9,29.85,North,-9999,-999.9,0.0,-999,0.00,,,0.00,WeatherCatV2.41B14,2017-04-28 08:40:00,
2017-04-28 04:45:00,-999.9,-99.9,29.85,North,-9999,-999.9,0.0,-999,0.00,,,0.00,WeatherCatV2.41B14,2017-04-28 08:45:00,
2017-04-28 04:50:00,-999.9,-99.9,29.85,North,-9999,-999.9,0.0,-999,0.00,,,0.00,WeatherCatV2.41B14,2017-04-28 08:50:00,
2017-04-28 04:55:00,-999.9,-99.9,29.85,North,-9999,-999.9,0.0,-999,0.00,,,0.00,WeatherCatV2.41B14,2017-04-28 08:55:00,
2017-04-28 05:00:00,-999.9,-99.9,29.86,North,-9999,-999.9,0.0,-999,0.00,,,0.00,WeatherCatV2.41B14,2017-04-28 09:00:00,
2017-04-28 05:05:00,-999.9,-99.9,29.86,North,-9999,-999.9,0.0,-999,0.00,,,0.00,WeatherCatV2.41B14,2017-04-28 09:05:00,
2017-04-28 05:10:00,-999.9,-99.9,29.86,North,-9999,-999.9,0.0,-999,0.00,,,0.00,WeatherCatV2.41B14,2017-04-28 09:10:00,
2017-04-28 05:15:00,-999.9,-99.9,29.86,North,-9999,-999.9,0.0,-999,0.00,,,0.00,WeatherCatV2.41B14,2017-04-28 09:15:00,
2017-04-28 05:20:00,-999.9,-99.9,29.86,North,-9999,-999.9,0.0,-999,0.00,,,0.00,WeatherCatV2.41B14,2017-04-28 09:20:00,
2017-04-28 05:25:00,-999.9,-99.9,29.86,North,-9999,-999.9,0.0,-999,0.00,,,0.00,WeatherCatV2.41B14,2017-04-28 09:25:00,
2017-04-28 05:30:00,-999.9,-99.9,29.87,North,-9999,-999.9,0.0,-999,0.00,,,0.00,WeatherCatV2.41B14,2017-04-28 09:30:00,
2017-04-28 05:35:00,-999.9,-99.9,29.86,North,-9999,-999.9,0.0,-999,0.00,,,0.00,WeatherCatV2.41B14,2017-04-28 09:35:00,
2017-04-28 05:40:00,-999.9,-99.9,29.86,North,-9999,-999.9,0.0,-999,0.00,,,0.00,WeatherCatV2.41B14,2017-04-28 09:40:00,
2017-04-28 05:45:00,-999.9,-99.9,29.87,North,-9999,-999.9,0.0,-999,0.00,,,0.00,WeatherCatV2.41B14,2017-04-28 09:45:00,
2017-04-28 05:50:00,-999.9,-99.9,29.87,North,-9999,-999.9,0.0,-999,0.00,,,0.00,WeatherCatV2.41B14,2017-04-28 09:50:00,
2017-04-28 05:55:00,-999.9,-99.9,29.86,North,-9999,-999.9,0.0,-999,0.00,,,0.00,WeatherCatV2.41B14,2017-04-28 09:55:00,
2017-04-28 06:00:00,-999.9,-99.9,29.86,North,-9999,-999.9,0.0,-999,0.00,,,0.00,WeatherCatV2.41B14,2017-04-28 10:00:00,
2017-04-28 06:05:00,-999.9,-99.9,29.86,North,-9999,-999.9,0.0,-999,0.00,,,0.00,WeatherCatV2.41B14,2017-04-28 10:05:00,
2017-04-28 06:10:00,-999.9,-99.9,29.87,North,-9999,-999.9,0.0,-999,0.00,,,0.00,WeatherCatV2.41B14,2017-04-28 10:10:00,
2017-04-28 06:15:00,-999.9,-99.9,29.86,North,-9999,-999.9,0.0,-999,0.00,,,0.00,WeatherCatV2.41B14,2017-04-28 10:15:00,
2017-04-28 06:20:00,-999.9,-99.9,29.87,North,-9999,-999.9,0.0,-999,0.00,,,0.00,WeatherCatV2.41B14,2017-04-28 10:20:00,
2017-04-28 06:25:00,-999.9,-99.9,29.87,North,-9999,-999.9,0.0,-999,0.00,,,0.00,WeatherCatV2.41B14,2017-04-28 10:25:00,
2017-04-28 06:30:00,-999.9,-99.9,29.88,North,-9999,-999.9,0.0,-999,0.00,,,0.00,WeatherCatV2.41B14,2017-04-28 10:30:00,
2017-04-28 06:35:00,-999.9,-99.9,29.89,North,-9999,-999.9,0.0,-999,0.00,,,0.00,WeatherCatV2.41B14,2017-04-28 10:35:00,
2017-04-28 06:40:00,-999.9,-99.9,29.89,North,-9999,-999.9,0.0,-999,0.00,,,0.00,WeatherCatV2.41B14,2017-04-28 10:40:00,
2017-04-28 06:45:00,-999.9,-99.9,29.89,North,-9999,-999.9,0.0,-999,0.00,,,0.00,WeatherCatV2.41B14,2017-04-28 10:45:00,
2017-04-28 06:50:00,-999.9,-99.9,29.89,North,-9999,-999.9,0.0,-999,0.00,,,0.00,WeatherCatV2.41B14,2017-04-28 10:50:00,
2017-04-28 06:55:00,-999.9,-99.9,29.90,North,-9999,-999.9,0.0,-999,0.00,,,0.00,WeatherCatV2.41B14,2017-04-28 10:55:00,
2017-04-28 07:00:00,-999.9,-99.9,29.89,North,-9999,-999.9,0.0,-999,0.00,,,0.00,WeatherCatV2.41B14,2017-04-28 11:00:00,
2017-04-28 07:05:00,-999.9,-99.9,29.89,North,-9999,-999.9,0.0,-999,0.00,,,0.00,WeatherCatV2.41B14,2017-04-28 11:05:00,
2017-04-28 07:10:00,-999.9,-99.9,29.90,North,-9999,-999.9,0.0,-999,0.00,,,0.00,WeatherCatV2.41B14,2017-04-28 11:10:00,
2017-04-28 07:15:00,-999.9,-99.9,29.89,North,-9999,-999.9,0.0,-999,0.00,,,0.00,WeatherCatV2.41B14,2017-04-28 11:15:00,
2017-04-28 07:20:00,-999.9,-99.9,29.90,North,-9999,-999.9,0.0,-999,0.00,,,0.00,WeatherCatV2.41B14,2017-04-28 11:20:00,
2017-04-28 07:25:00,-999.9,-99.9,29.90,North,-9999,-999.9,0.0,-999,0.00,,,0.00,WeatherCatV2.41B14,2017-04-28 11:25:00,
2017-04-28 07:30:00,-999.9,-99.9,29.90,North,-9999,-999.9,0.0,-999,0.00,,,0.00,WeatherCatV2.41B14,2017-04-28 11:30:00,
2017-04-28 07:35:00,-999.9,-99.9,29.90,North,-9999,-999.9,0.0,-999,0.00,,,0.00,WeatherCatV2.41B14,2017-04-28 11:35:00,
2017-04-28 07:40:00,-999.9,-99.9,29.90,North,-9999,-999.9,0.0,-999,0.00,,,0.00,WeatherCatV2.41B14,2017-04-28 11:40:00,
2017-04-28 07:45:00,54.1,53.5,29.90,SSE,158,0.0,0.0,98,0.00,,,0.00,WeatherCatV2.41B14,2017-04-28 11:45:00,
2017-04-28 07:50:00,54.2,53.7,29.90,SSE,157,0.0,0.0,98,0.00,,,0.00,WeatherCatV2.41B14,2017-04-28 11:50:00,
2017-04-28 07:55:00,54.4,53.8,29.89,SSE,157,0.0,0.0,98,0.00,,,0.00,WeatherCatV2.41B14,2017-04-28 11:55:00,
2017-04-28 08:00:00,54.6,54.0,29.88,SSE,157,0.0,0.0,98,0.00,,,0.00,WeatherCatV2.41B14,2017-04-28 12:00:00,
2017-04-28 08:05:00,54.6,54.0,29.89,SSE,158,0.0,0.0,98,0.00,,,0.00,WeatherCatV2.41B14,2017-04-28 12:05:00,
2017-04-28 08:10:00,54.6,54.0,29.90,SSE,158,0.0,0.0,98,0.00,,,0.00,WeatherCatV2.41B14,2017-04-28 12:10:00,
2017-04-28 08:15:00,54.7,54.1,29.89,SSE,157,0.0,0.0,98,0.00,,,0.00,WeatherCatV2.41B14,2017-04-28 12:15:00,
2017-04-28 08:20:00,54.9,54.3,29.90,SSE,158,0.0,0.0,98,0.00,,,0.00,WeatherCatV2.41B14,2017-04-28 12:20:00,
2017-04-28 08:25:00,55.1,54.5,29.90,SSE,158,0.0,0.0,98,0.00,,,0.00,WeatherCatV2.41B14,2017-04-28 12:25:00,
2017-04-28 08:30:00,55.2,54.6,29.91,SSE,158,0.0,0.0,98,0.00,,,0.00,WeatherCatV2.41B14,2017-04-28 12:30:00,
2017-04-28 08:35:00,55.5,54.9,29.91,SSE,157,0.0,0.0,98,0.00,,,0.00,WeatherCatV2.41B14,2017-04-28 12:35:00,
2017-04-28 08:40:00,56.2,55.6,29.91,SSE,158,0.0,3.0,98,0.00,,,0.00,WeatherCatV2.41B14,2017-04-28 12:40:00,
2017-04-28 08:45:00,56.3,55.7,29.91,SSE,158,0.0,0.0,98,0.00,,,0.00,WeatherCatV2.41B14,2017-04-28 12:45:00,
2017-04-28 08:50:00,56.3,55.7,29.91,SSE,158,0.0,0.0,98,0.00,,,0.00,WeatherCatV2.41B14,2017-04-28 12:50:00,
2017-04-28 08:55:00,56.4,55.8,29.91,SSE,158,0.0,0.0,98,0.00,,,0.00,WeatherCatV2.41B14,2017-04-28 12:55:00,
2017-04-28 08:57:00,56.4,55.8,29.91,SSE,158,0.0,1.0,98,0.00,,,0.00,WeatherCatV2.41B14,2017-04-28 12:57:00,
2017-04-28 09:02:00,56.4,55.8,29.91,SSE,158,0.0,0.0,98,0.00,,,0.00,WeatherCatV2.41B14,2017-04-28 13:02:00,
2017-04-28 09:07:00,56.3,55.7,29.91,SSE,158,0.0,0.0,98,0.00,,,0.00,WeatherCatV2.41B14,2017-04-28 13:07:00,
2017-04-28 09:12:00,56.4,55.8,29.90,SSE,158,0.0,0.0,98,0.00,,,0.00,WeatherCatV2.41B14,2017-04-28 13:12:00,
2017-04-28 09:17:00,56.6,56.0,29.90,SSE,157,0.0,0.0,98,0.00,,,0.00,WeatherCatV2.41B14,2017-04-28 13:17:00,
2017-04-28 09:22:00,56.6,56.0,29.90,SSE,158,0.0,1.0,98,0.00,,,0.00,WeatherCatV2.41B14,2017-04-28 13:22:00,
2017-04-28 09:27:00,56.7,56.1,29.90,SSE,158,0.0,0.0,98,0.00,,,0.00,WeatherCatV2.41B14,2017-04-28 13:27:00,
2017-04-28 09:32:00,57.0,56.4,29.90,SSE,157,0.0,0.0,98,0.00,,,0.00,WeatherCatV2.41B14,2017-04-28 13:32:00,
2017-04-28 09:37:00,57.2,56.6,29.90,SSE,161,0.0,3.0,98,0.00,,,0.00,WeatherCatV2.41B14,2017-04-28 13:37:00,
2017-04-28 09:42:00,57.3,56.5,29.90,SSE,158,0.0,0.0,97,0.00,,,0.00,WeatherCatV2.41B14,2017-04-28 13:42:00,
2017-04-28 09:47:00,57.6,56.8,29.90,SSE,157,0.0,0.0,97,0.00,,,0.00,WeatherCatV2.41B14,2017-04-28 13:47:00,
2017-04-28 09:52:00,57.8,56.7,29.90,SSE,157,0.0,1.0,96,0.00,,,0.00,WeatherCatV2.41B14,2017-04-28 13:52:00,
2017-04-28 09:57:00,58.0,56.9,29.90,SSE,158,0.0,0.0,96,0.00,,,0.00,WeatherCatV2.41B14,2017-04-28 13:57:00,
2017-04-28 10:02:00,58.4,57.0,29.90,SSE,158,0.0,1.0,95,0.00,,,0.00,WeatherCatV2.41B14,2017-04-28 14:02:00,
2017-04-28 10:07:00,58.7,57.0,29.90,SSE,158,0.0,0.0,94,0.00,,,0.00,WeatherCatV2.41B14,2017-04-28 14:07:00,
2017-04-28 10:12:00,59.3,57.6,29.90,SSE,157,0.0,0.0,94,0.00,,,0.00,WeatherCatV2.41B14,2017-04-28 14:12:00,
2017-04-28 10:17:00,59.8,57.5,29.89,SSE,163,0.0,0.0,92,0.00,,,0.00,WeatherCatV2.41B14,2017-04-28 14:17:00,
2017-04-28 10:22:00,60.4,58.1,29.89,SSE,163,0.0,1.0,92,0.00,,,0.00,WeatherCatV2.41B14,2017-04-28 14:22:00,
2017-04-28 10:27:00,61.1,58.5,29.89,SSE,161,2.0,2.0,91,0.00,,,0.00,WeatherCatV2.41B14,2017-04-28 14:27:00,
2017-04-28 10:32:00,61.7,58.4,29.89,SSE,161,0.0,1.0,89,0.00,,,0.00,WeatherCatV2.41B14,2017-04-28 14:32:00,
2017-04-28 10:37:00,61.9,58.3,29.89,SSE,162,0.0,2.0,88,0.00,,,0.00,WeatherCatV2.41B14,2017-04-28 14:37:00,
2017-04-28 10:42:00,62.7,59.1,29.89,SSE,162,1.0,2.0,88,0.00,,,0.00,WeatherCatV2.41B14,2017-04-28 14:42:00,
2017-04-28 10:48:00,63.7,59.8,29.89,South,175,2.0,2.0,87,0.00,,,0.00,WeatherCatV2.41B14,2017-04-28 14:48:00,
2017-04-28 10:53:00,64.5,59.5,29.89,SSE,159,1.0,3.0,84,0.00,,,0.00,WeatherCatV2.41B14,2017-04-28 14:53:00,
2017-04-28 10:58:00,65.2,59.9,29.89,SSE,164,0.0,2.0,83,0.00,,,0.00,WeatherCatV2.41B14,2017-04-28 14:58:00,
2017-04-28 11:03:00,66.0,60.3,29.88,ESE,120,2.0,3.0,82,0.00,,,0.00,WeatherCatV2.41B14,2017-04-28 15:03:00,
2017-04-28 11:08:00,66.6,60.2,29.88,SE,141,0.0,2.0,80,0.00,,,0.00,WeatherCatV2.41B14,2017-04-28 15:08:00,
2017-04-28 11:13:00,67.1,61.1,29.88,SE,145,2.0,3.0,81,0.00,,,0.00,WeatherCatV2.41B14,2017-04-28 15:13:00,
2017-04-28 11:18:00,67.3,59.8,29.88,SE,142,2.0,4.0,77,0.00,,,0.00,WeatherCatV2.41B14,2017-04-28 15:18:00,
2017-04-28 11:23:00,67.7,60.2,29.88,SE,144,0.0,1.0,77,0.00,,,0.00,WeatherCatV2.41B14,2017-04-28 15:23:00,
2017-04-28 11:28:00,68.6,60.3,29.87,SE,140,0.0,4.0,75,0.00,,,0.00,WeatherCatV2.41B14,2017-04-28 15:28:00,
2017-04-28 11:33:00,69.7,61.0,29.87,SE,140,0.0,2.0,74,0.00,,,0.00,WeatherCatV2.41B14,2017-04-28 15:33:00,
2017-04-28 11:38:00,70.1,60.6,29.87,SE,140,0.0,3.0,72,0.00,,,0.00,WeatherCatV2.41B14,2017-04-28 15:38:00,
2017-04-28 11:43:00,70.7,60.8,29.87,ESE,110,3.0,4.0,71,0.00,,,0.00,WeatherCatV2.41B14,2017-04-28 15:43:00,
2017-04-28 11:48:00,71.4,61.5,29.86,SE,143,2.0,4.0,71,0.00,,,0.00,WeatherCatV2.41B14,2017-04-28 15:48:00,
2017-04-28 11:53:00,72.0,61.3,29.86,WNW,284,2.0,5.0,69,0.00,,,0.00,WeatherCatV2.41B14,2017-04-28 15:53:00,
2017-04-28 11:58:00,73.0,63.0,29.86,SSW,199,3.0,5.0,71,0.00,,,0.00,WeatherCatV2.41B14,2017-04-28 15:58:00,
2017-04-28 12:03:00,73.1,61.5,29.86,SSW,192,0.0,4.0,67,0.00,,,0.00,WeatherCatV2.41B14,2017-04-28 16:03:00,
2017-04-28 12:08:00,73.2,62.4,29.86,SSW,192,0.0,1.0,69,0.00,,,0.00,WeatherCatV2.41B14,2017-04-28 16:08:00,
2017-04-28 12:13:00,73.0,61.8,29.86,SSW,192,2.0,2.0,68,0.00,,,0.00,WeatherCatV2.41B14,2017-04-28 16:13:00,
2017-04-28 12:18:00,72.9,61.7,29.86,South,176,0.0,3.0,68,0.00,,,0.00,WeatherCatV2.41B14,2017-04-28 16:18:00,
2017-04-28 12:23:00,73.4,62.6,29.86,South,178,3.0,4.0,69,0.00,,,0.00,WeatherCatV2.41B14,2017-04-28 16:23:00,
2017-04-28 12:28:00,73.8,61.7,29.85,South,178,0.0,3.0,66,0.00,,,0.00,WeatherCatV2.41B14,2017-04-28 16:28:00,
2017-04-28 12:33:00,73.7,60.8,29.85,SSE,150,0.0,3.0,64,0.00,,,0.00,WeatherCatV2.41B14,2017-04-28 16:33:00,
2017-04-28 12:38:00,73.0,61.0,29.86,SSE,147,0.0,3.0,66,0.00,,,0.00,WeatherCatV2.41B14,2017-04-28 16:38:00,
2017-04-28 12:43:00,72.0,60.8,29.86,SSE,157,0.0,1.0,68,0.00,,,0.00,WeatherCatV2.41B14,2017-04-28 16:43:00,
2017-04-28 12:48:00,71.6,60.5,29.85,ESE,119,0.0,2.0,68,0.00,,,0.00,WeatherCatV2.41B14,2017-04-28 16:48:00,
2017-04-28 12:54:00,72.2,61.0,29.86,SW,215,0.0,3.0,68,0.00,,,0.00,WeatherCatV2.41B14,2017-04-28 16:54:00,
2017-04-28 12:59:00,73.1,61.0,29.85,SW,215,2.0,3.0,66,0.00,,,0.00,WeatherCatV2.41B14,2017-04-28 16:59:00,
2017-04-28 13:04:00,73.2,60.3,29.85,SW,216,0.0,1.0,64,0.00,,,0.00,WeatherCatV2.41B14,2017-04-28 17:04:00,
2017-04-28 13:09:00,73.0,60.5,29.85,South,175,0.0,4.0,65,0.00,,,0.00,WeatherCatV2.41B14,2017-04-28 17:09:00,
2017-04-28 13:14:00,72.5,60.9,29.85,South,176,2.0,3.0,67,0.00,,,0.00,WeatherCatV2.41B14,2017-04-28 17:14:00,
2017-04-28 13:19:00,72.1,60.9,29.86,SSE,162,1.0,3.0,68,0.00,,,0.00,WeatherCatV2.41B14,2017-04-28 17:19:00,
2017-04-28 13:24:00,71.6,61.3,29.85,ESE,122,2.0,2.0,70,0.00,,,0.00,WeatherCatV2.41B14,2017-04-28 17:24:00,
2017-04-28 13:29:00,71.4,60.7,29.86,SE,130,2.0,3.0,69,0.00,,,0.00,WeatherCatV2.41B14,2017-04-28 17:29:00,
2017-04-28 13:34:00,71.0,60.7,29.86,SSE,166,0.0,5.0,70,0.00,,,0.00,WeatherCatV2.41B14,2017-04-28 17:34:00,
2017-04-28 13:39:00,71.0,60.7,29.86,SSE,166,1.0,1.0,70,0.00,,,0.00,WeatherCatV2.41B14,2017-04-28 17:39:00,
2017-04-28 13:44:00,71.5,61.6,29.86,SSE,166,0.0,2.0,71,0.00,,,0.00,WeatherCatV2.41B14,2017-04-28 17:44:00,
2017-04-28 13:49:00,72.0,60.8,29.85,South,183,0.0,3.0,68,0.00,,,0.00,WeatherCatV2.41B14,2017-04-28 17:49:00,
2017-04-28 13:54:00,72.2,61.5,29.85,South,183,1.0,2.0,69,0.00,,,0.00,WeatherCatV2.41B14,2017-04-28 17:54:00,
2017-04-28 13:57:00,72.4,61.6,29.86,South,183,0.0,2.0,69,0.00,,,0.00,WeatherCatV2.41B14,2017-04-28 17:57:00,
2017-04-28 14:02:00,72.6,61.4,29.86,South,183,0.0,0.0,68,0.00,,,0.00,WeatherCatV2.41B14,2017-04-28 18:02:00,
2017-04-28 14:07:00,72.8,60.3,29.86,South,183,0.0,0.0,65,0.00,,,0.00,WeatherCatV2.41B14,2017-04-28 18:07:00,
2017-04-28 14:12:00,73.2,60.7,29.86,South,183,2.0,2.0,65,0.00,,,0.00,WeatherCatV2.41B14,2017-04-28 18:12:00,
2017-04-28 14:17:00,73.4,60.5,29.86,South,183,0.0,1.0,64,0.00,,,0.00,WeatherCatV2.41B14,2017-04-28 18:17:00,
2017-04-28 14:22:00,73.7,61.6,29.85,South,183,0.0,0.0,66,0.00,,,0.00,WeatherCatV2.41B14,2017-04-28 18:22:00,
2017-04-28 14:27:00,74.4,60.1,29.86,SSE,150,2.0,3.0,61,0.00,,,0.00,WeatherCatV2.41B14,2017-04-28 18:27:00,
2017-04-28 14:32:00,75.0,59.7,29.86,SE,145,3.0,5.0,59,0.00,,,0.00,WeatherCatV2.41B14,2017-04-28 18:32:00,
2017-04-28 14:34:00,75.2,58.9,29.86,SE,145,0.0,2.0,57,0.00,,,0.00,WeatherCatV2.41B14,2017-04-28 18:34:00,
2017-04-28 14:37:00,75.5,60.2,29.86,ESE,121,3.0,3.0,59,0.00,,,0.00,WeatherCatV2.41B14,2017-04-28 18:37:00,
2017-04-28 14:42:00,75.8,56.9,29.85,SSE,158,1.0,5.0,52,0.00,,,0.00,WeatherCatV2.41B14,2017-04-28 18:42:00,
2017-04-28 14:47:00,76.2,57.3,29.85,SE,145,2.0,5.0,52,0.00,,,0.00,WeatherCatV2.41B14,2017-04-28 18:47:00,
2017-04-28 14:52:00,76.8,55.0,29.85,NW,311,3.0,7.0,47,0.00,,,0.00,WeatherCatV2.41B14,2017-04-28 18:52:00,
2017-04-28 14:57:00,77.3,54.9,29.85,WSW,253,1.0,6.0,46,0.00,,,0.00,WeatherCatV2.41B14,2017-04-28 18:57:00,
2017-04-28 15:02:00,78.0,54.3,29.82,SW,232,0.0,5.0,44,0.00,,,0.00,WeatherCatV2.41B14,2017-04-28 19:02:00,
2017-04-28 15:07:00,78.3,53.9,29.81,SSW,211,3.0,5.0,43,0.00,,,0.00,WeatherCatV2.41B14,2017-04-28 19:07:00,
2017-04-28 15:10:00,78.1,54.4,29.81,SW,219,1.0,3.0,44,0.00,,,0.00,WeatherCatV2.41B14,2017-04-28 19:10:00,
2017-04-28 15:15:00,77.5,54.5,29.81,South,183,4.0,5.0,45,0.00,,,0.00,WeatherCatV2.41B14,2017-04-28 19:15:00,
2017-04-28 15:20:00,76.8,54.4,29.81,ESE,121,0.0,5.0,46,0.00,,,0.00,WeatherCatV2.41B14,2017-04-28 19:20:00,
2017-04-28 15:26:00,76.5,53.6,29.80,West,259,4.0,4.0,45,0.00,,,0.00,WeatherCatV2.41B14,2017-04-28 19:26:00,
2017-04-28 15:31:00,76.9,53.3,29.80,South,178,0.0,2.0,44,0.00,,,0.00,WeatherCatV2.41B14,2017-04-28 19:31:00,
2017-04-28 15:36:00,77.7,52.8,29.79,SW,231,1.0,8.0,42,0.00,,,0.00,WeatherCatV2.41B14,2017-04-28 19:36:00,
2017-04-28 15:41:00,77.9,53.6,29.79,South,188,4.0,4.0,43,0.00,,,0.00,WeatherCatV2.41B14,2017-04-28 19:41:00,
2017-04-28 15:46:00,78.0,53.0,29.80,SW,226,3.0,4.0,42,0.00,,,0.00,WeatherCatV2.41B14,2017-04-28 19:46:00,
2017-04-28 15:51:00,77.6,52.0,29.80,SW,232,2.0,4.0,41,0.00,,,0.00,WeatherCatV2.41B14,2017-04-28 19:51:00,
2017-04-28 15:56:00,77.4,53.1,29.81,SW,234,1.0,3.0,43,0.00,,,0.00,WeatherCatV2.41B14,2017-04-28 19:56:00,
2017-04-28 16:01:00,77.7,52.1,29.81,WSW,252,3.0,6.0,41,0.00,,,0.00,WeatherCatV2.41B14,2017-04-28 20:01:00,
2017-04-28 16:06:00,77.8,50.8,29.81,West,267,1.0,4.0,39,0.00,,,0.00,WeatherCatV2.41B14,2017-04-28 20:06:00,
2017-04-28 16:11:00,78.1,51.8,29.81,WSW,238,0.0,6.0,40,0.00,,,0.00,WeatherCatV2.41B14,2017-04-28 20:11:00,
2017-04-28 16:16:00,78.3,51.3,29.81,WSW,237,6.0,6.0,39,0.00,,,0.00,WeatherCatV2.41B14,2017-04-28 20:16:00,
2017-04-28 16:21:00,78.5,51.5,29.82,West,273,2.0,6.0,39,0.00,,,0.00,WeatherCatV2.41B14,2017-04-28 20:21:00,
2017-04-28 16:26:00,78.5,49.3,29.82,WNW,286,2.0,7.0,36,0.00,,,0.00,WeatherCatV2.41B14,2017-04-28 20:26:00,
2017-04-28 16:31:00,77.8,50.1,29.82,SSW,203,1.0,6.0,38,0.00,,,0.00,WeatherCatV2.41B14,2017-04-28 20:31:00,
2017-04-28 16:36:00,76.9,50.0,29.82,SSW,203,2.0,6.0,39,0.00,,,0.00,WeatherCatV2.41B14,2017-04-28 20:36:00,
2017-04-28 16:41:00,76.2,48.0,29.82,WSW,253,2.0,5.0,37,0.00,,,0.00,WeatherCatV2.41B14,2017-04-28 20:41:00,
2017-04-28 16:46:00,76.1,47.2,29.82,West,278,1.0,7.0,36,0.00,,,0.00,WeatherCatV2.41B14,2017-04-28 20:46:00,
2017-04-28 16:51:00,76.3,48.1,29.82,WSW,257,0.0,5.0,37,0.00,,,0.00,WeatherCatV2.41B14,2017-04-28 20:51:00,
2017-04-28 16:56:00,76.5,49.0,29.82,WSW,247,2.0,3.0,38,0.00,,,0.00,WeatherCatV2.41B14,2017-04-28 20:56:00,
2017-04-28 17:01:00,76.2,47.3,29.82,WSW,245,1.0,1.0,36,0.00,,,0.00,WeatherCatV2.41B14,2017-04-28 21:01:00,
2017-04-28 17:06:00,75.9,47.0,29.83,SSW,208,2.0,6.0,36,0.00,,,0.00,WeatherCatV2.41B14,2017-04-28 21:06:00,
2017-04-28 17:11:00,75.8,48.4,29.83,SE,144,1.0,3.0,38,0.00,,,0.00,WeatherCatV2.41B14,2017-04-28 21:11:00,
2017-04-28 17:16:00,76.4,47.5,29.83,South,178,3.0,4.0,36,0.00,,,0.00,WeatherCatV2.41B14,2017-04-28 21:16:00,
2017-04-28 17:21:00,76.9,47.1,29.82,SSW,193,0.0,4.0,35,0.00,,,0.00,WeatherCatV2.41B14,2017-04-28 21:21:00,
2017-04-28 17:26:00,77.2,46.6,29.82,South,191,3.0,5.0,34,0.00,,,0.00,WeatherCatV2.41B14,2017-04-28 21:26:00,
2017-04-28 17:31:00,77.1,46.5,29.83,SSW,207,1.0,4.0,34,0.00,,,0.00,WeatherCatV2.41B14,2017-04-28 21:31:00,
2017-04-28 17:36:00,77.2,46.6,29.83,SW,220,1.0,3.0,34,0.00,,,0.00,WeatherCatV2.41B14,2017-04-28 21:36:00,
2017-04-28 17:41:00,77.1,45.0,29.84,SSE,158,2.0,3.0,32,0.00,,,0.00,WeatherCatV2.41B14,2017-04-28 21:41:00,
2017-04-28 17:46:00,76.7,43.8,29.83,SSW,195,3.0,3.0,31,0.00,,,0.00,WeatherCatV2.41B14,2017-04-28 21:46:00,
2017-04-28 17:51:00,75.8,44.6,29.84,SSW,192,0.0,5.0,33,0.00,,,0.00,WeatherCatV2.41B14,2017-04-28 21:51:00,
2017-04-28 17:56:00,75.6,45.2,29.84,SSW,192,1.0,1.0,34,0.00,,,0.00,WeatherCatV2.41B14,2017-04-28 21:56:00,
2017-04-28 18:01:00,75.1,43.2,29.84,SSW,210,0.0,5.0,32,0.00,,,0.00,WeatherCatV2.41B14,2017-04-28 22:01:00,
2017-04-28 18:06:00,74.9,45.4,29.84,South,173,2.0,2.0,35,0.00,,,0.00,WeatherCatV2.41B14,2017-04-28 22:06:00,
2017-04-28 18:11:00,74.8,44.5,29.84,South,174,3.0,5.0,34,0.00,,,0.00,WeatherCatV2.41B14,2017-04-28 22:11:00,
2017-04-28 18:16:00,74.7,44.5,29.84,NNW,336,1.0,2.0,34,0.00,,,0.00,WeatherCatV2.41B14,2017-04-28 22:16:00,
2017-04-28 18:21:00,74.5,45.8,29.84,East,80,0.0,0.0,36,0.00,,,0.00,WeatherCatV2.41B14,2017-04-28 22:21:00,
2017-04-28 18:26:00,74.2,46.2,29.85,SE,138,0.0,1.0,37,0.00,,,0.00,WeatherCatV2.41B14,2017-04-28 22:26:00,
2017-04-28 18:31:00,74.0,48.1,29.84,SE,137,0.0,1.0,40,0.00,,,0.00,WeatherCatV2.41B14,2017-04-28 22:31:00,
2017-04-28 18:36:00,73.6,45.7,29.84,NNE,31,0.0,4.0,37,0.00,,,0.00,WeatherCatV2.41B14,2017-04-28 22:36:00,
2017-04-28 18:41:00,72.9,44.4,29.84,SE,127,0.0,1.0,36,0.00,,,0.00,WeatherCatV2.41B14,2017-04-28 22:41:00,
2017-04-28 18:46:00,72.6,48.2,29.84,SE,126,0.0,1.0,42,0.00,,,0.00,WeatherCatV2.41B14,2017-04-28 22:46:00,
2017-04-28 18:51:00,71.6,50.9,29.85,SE,126,0.0,1.0,48,0.00,,,0.00,WeatherCatV2.41B14,2017-04-28 22:51:00,
2017-04-28 18:56:00,70.3,50.2,29.85,SE,127,0.0,2.0,49,0.00,,,0.00,WeatherCatV2.41B14,2017-04-28 22:56:00,
2017-04-28 19:01:00,69.0,50.6,29.87,SE,127,0.0,0.0,52,0.00,,,0.00,WeatherCatV2.41B14,2017-04-28 23:01:00,
2017-04-28 19:06:00,67.6,50.3,29.87,SE,127,0.0,0.0,54,0.00,,,0.00,WeatherCatV2.41B14,2017-04-28 23:06:00,
2017-04-28 19:11:00,66.6,50.4,29.88,SE,127,0.0,0.0,56,0.00,,,0.00,WeatherCatV2.41B14,2017-04-28 23:11:00,
2017-04-28 19:16:00,65.8,50.1,29.88,SE,127,0.0,0.0,57,0.00,,,0.00,WeatherCatV2.41B14,2017-04-28 23:16:00,
2017-04-28 19:21:00,65.1,50.0,29.88,SE,126,0.0,0.0,58,0.00,,,0.00,WeatherCatV2.41B14,2017-04-28 23:21:00,
2017-04-28 19:26:00,64.3,49.7,29.89,SE,127,0.0,0.0,59,0.00,,,0.00,WeatherCatV2.41B14,2017-04-28 23:26:00,
2017-04-28 19:31:00,63.5,49.4,29.89,SE,127,0.0,0.0,60,0.00,,,0.00,WeatherCatV2.41B14,2017-04-28 23:31:00,
2017-04-28 19:36:00,62.8,49.2,29.89,SE,127,0.0,0.0,61,0.00,,,0.00,WeatherCatV2.41B14,2017-04-28 23:36:00,
2017-04-28 19:41:00,62.1,49.3,29.89,SE,127,1.0,1.0,63,0.00,,,0.00,WeatherCatV2.41B14,2017-04-28 23:41:00,
2017-04-28 19:46:00,61.5,49.6,29.90,SE,127,0.0,0.0,65,0.00,,,0.00,WeatherCatV2.41B14,2017-04-28 23:46:00,
2017-04-28 19:51:00,61.0,48.7,29.90,SE,127,0.0,0.0,64,0.00,,,0.00,WeatherCatV2.41B14,2017-04-28 23:51:00,
2017-04-28 19:56:00,60.5,48.7,29.90,SE,126,0.0,0.0,65,0.00,,,0.00,WeatherCatV2.41B14,2017-04-28 23:56:00,
2017-04-28 20:01:00,60.0,48.6,29.90,SE,126,0.0,0.0,66,0.00,,,0.00,WeatherCatV2.41B14,2017-04-29 00:01:00,
2017-04-28 20:06:00,59.5,48.5,29.90,SE,127,0.0,0.0,67,0.00,,,0.00,WeatherCatV2.41B14,2017-04-29 00:06:00,
2017-04-28 20:11:00,59.0,48.5,29.91,SE,127,0.0,0.0,68,0.00,,,0.00,WeatherCatV2.41B14,2017-04-29 00:11:00,
2017-04-28 20:16:00,58.6,49.6,29.91,SE,126,0.0,0.0,72,0.00,,,0.00,WeatherCatV2.41B14,2017-04-29 00:16:00,
2017-04-28 20:21:00,58.3,48.6,29.91,SE,127,0.0,0.0,70,0.00,,,0.00,WeatherCatV2.41B14,2017-04-29 00:21:00,
2017-04-28 20:26:00,58.0,48.3,29.91,SE,127,0.0,0.0,70,0.00,,,0.00,WeatherCatV2.41B14,2017-04-29 00:26:00,
2017-04-28 20:31:00,57.7,48.0,29.92,SE,127,0.0,0.0,70,0.00,,,0.00,WeatherCatV2.41B14,2017-04-29 00:31:00,
2017-04-28 20:37:00,57.3,48.0,29.92,SE,126,0.0,1.0,71,0.00,,,0.00,WeatherCatV2.41B14,2017-04-29 00:37:00,
2017-04-28 20:42:00,56.9,48.0,29.92,SE,126,0.0,0.0,72,0.00,,,0.00,WeatherCatV2.41B14,2017-04-29 00:42:00,
2017-04-28 20:47:00,56.6,47.7,29.92,SE,126,0.0,0.0,72,0.00,,,0.00,WeatherCatV2.41B14,2017-04-29 00:47:00,
2017-04-28 20:52:00,56.2,47.3,29.92,SE,127,0.0,0.0,72,0.00,,,0.00,WeatherCatV2.41B14,2017-04-29 00:52:00,
2017-04-28 20:57:00,55.9,47.4,29.93,SE,127,0.0,0.0,73,0.00,,,0.00,WeatherCatV2.41B14,2017-04-29 00:57:00,
2017-04-28 21:02:00,55.7,47.5,29.93,SE,126,0.0,0.0,74,0.00,,,0.00,WeatherCatV2.41B14,2017-04-29 01:02:00,
2017-04-28 21:07:00,55.4,47.6,29.93,SE,127,0.0,0.0,75,0.00,,,0.00,WeatherCatV2.41B14,2017-04-29 01:07:00,
2017-04-28 21:12:00,55.2,47.4,29.93,SE,127,0.0,2.0,75,0.00,,,0.00,WeatherCatV2.41B14,2017-04-29 01:12:00,
2017-04-28 21:17:00,55.0,46.9,29.93,SE,126,0.0,0.0,74,0.00,,,0.00,WeatherCatV2.41B14,2017-04-29 01:17:00,
2017-04-28 21:22:00,54.9,47.5,29.92,SE,125,0.0,3.0,76,0.00,,,0.00,WeatherCatV2.41B14,2017-04-29 01:22:00,
2017-04-28 21:27:00,54.8,47.0,29.92,SE,126,0.0,1.0,75,0.00,,,0.00,WeatherCatV2.41B14,2017-04-29 01:27:00,
2017-04-28 21:32:00,54.6,47.2,29.93,SE,126,0.0,0.0,76,0.00,,,0.00,WeatherCatV2.41B14,2017-04-29 01:32:00,
2017-04-28 21:37:00,54.4,47.3,29.93,SE,126,0.0,0.0,77,0.00,,,0.00,WeatherCatV2.41B14,2017-04-29 01:37:00,
2017-04-28 21:41:00,54.3,47.6,29.93,SE,126,0.0,0.0,78,0.00,,,0.00,WeatherCatV2.41B14,2017-04-29 01:41:00,
2017-04-28 21:46:00,54.1,47.4,29.93,SE,125,0.0,0.0,78,0.00,,,0.00,WeatherCatV2.41B14,2017-04-29 01:46:00,
2017-04-28 21:51:00,53.9,47.2,29.93,SE,125,0.0,0.0,78,0.00,,,0.00,WeatherCatV2.41B14,2017-04-29 01:51:00,
2017-04-28 21:56:00,53.8,47.4,29.94,SE,126,0.0,0.0,79,0.00,,,0.00,WeatherCatV2.41B14,2017-04-29 01:56:00,
2017-04-28 22:01:00,53.7,47.3,29.93,SE,126,0.0,1.0,79,0.00,,,0.00,WeatherCatV2.41B14,2017-04-29 02:01:00,
2017-04-28 22:02:00,53.6,47.2,29.93,SE,126,0.0,1.0,79,0.00,,,0.00,WeatherCatV2.41B14,2017-04-29 02:02:00,
2017-04-28 22:07:00,53.4,47.4,29.93,SE,126,0.0,1.0,80,0.00,,,0.00,WeatherCatV2.41B14,2017-04-29 02:07:00,
2017-04-28 22:12:00,53.2,47.2,29.93,SE,125,0.0,1.0,80,0.00,,,0.00,WeatherCatV2.41B14,2017-04-29 02:12:00,
2017-04-28 22:17:00,53.0,47.3,29.94,SE,126,0.0,1.0,81,0.00,,,0.00,WeatherCatV2.41B14,2017-04-29 02:17:00,
2017-04-28 22:22:00,52.8,46.8,29.94,SE,126,0.0,0.0,80,0.00,,,0.00,WeatherCatV2.41B14,2017-04-29 02:22:00,
2017-04-28 22:27:00,52.8,47.5,29.94,SE,144,0.0,0.0,82,0.00,,,0.00,WeatherCatV2.41B14,2017-04-29 02:27:00,
2017-04-28 22:32:00,52.5,46.8,29.94,SE,144,0.0,0.0,81,0.00,,,0.00,WeatherCatV2.41B14,2017-04-29 02:32:00,
2017-04-28 22:37:00,52.2,46.9,29.94,SE,144,0.0,0.0,82,0.00,,,0.00,WeatherCatV2.41B14,2017-04-29 02:37:00,
2017-04-28 22:42:00,52.0,47.0,29.94,SE,144,0.0,0.0,83,0.00,,,0.00,WeatherCatV2.41B14,2017-04-29 02:42:00,
2017-04-28 22:47:00,51.8,46.5,29.94,SE,134,0.0,0.0,82,0.00,,,0.00,WeatherCatV2.41B14,2017-04-29 02:47:00,
2017-04-28 22:52:00,51.7,46.7,29.94,SE,133,0.0,0.0,83,0.00,,,0.00,WeatherCatV2.41B14,2017-04-29 02:52:00,
2017-04-28 22:57:00,51.5,46.2,29.94,SE,134,0.0,0.0,82,0.00,,,0.00,WeatherCatV2.41B14,2017-04-29 02:57:00,
2017-04-28 23:02:00,51.4,46.4,29.93,SE,134,0.0,0.0,83,0.00,,,0.00,WeatherCatV2.41B14,2017-04-29 03:02:00,
2017-04-28 23:07:00,51.3,46.3,29.94,SE,132,0.0,0.0,83,0.00,,,0.00,WeatherCatV2.41B14,2017-04-29 03:07:00,
2017-04-28 23:12:00,51.2,45.9,29.94,SSE,149,0.0,0.0,82,0.00,,,0.00,WeatherCatV2.41B14,2017-04-29 03:12:00,
2017-04-28 23:17:00,51.0,46.0,29.94,SE,140,0.0,0.0,83,0.00,,,0.00,WeatherCatV2.41B14,2017-04-29 03:17:00,
2017-04-28 23:22:00,51.0,45.4,29.93,SE,140,0.0,0.0,81,0.00,,,0.00,WeatherCatV2.41B14,2017-04-29 03:22:00,
2017-04-28 23:27:00,50.8,45.2,29.93,SE,140,0.0,0.0,81,0.00,,,0.00,WeatherCatV2.41B14,2017-04-29 03:27:00,
2017-04-28 23:32:00,50.7,45.4,29.93,SE,140,0.0,0.0,82,0.00,,,0.00,WeatherCatV2.41B14,2017-04-29 03:32:00,
2017-04-28 23:37:00,50.6,45.0,29.93,SE,140,0.0,0.0,81,0.00,,,0.00,WeatherCatV2.41B14,2017-04-29 03:37:00,
2017-04-28 23:42:00,50.5,44.9,29.93,SE,140,0.0,0.0,81,0.00,,,0.00,WeatherCatV2.41B14,2017-04-29 03:42:00,
2017-04-28 23:47:00,50.5,42.9,29.94,West,259,0.0,0.0,75,0.00,,,0.00,WeatherCatV2.41B14,2017-04-29 03:47:00,